Time;durP1;ratioP1;P1;durP2;ratioP2;P2;SDS_P1;SDS_P2;PMS_P1;PMS_P2;Temp;Humidity;BMP_temperature;BMP_pressure;BME280_temperature;BME280_humidity;BME280_pressure;Samples;Min_cycle;Max_cycle;Signal;HPM_P1;HPM_P2
2022/05/29 00:02:21;;;;;;;10.98;2.85;;;;;;;12.00;61.18;101750.84;5034473;28;20463;-62
2022/05/29 00:04:46;;;;;;;5.40;2.30;;;;;;;11.99;61.27;101741.09;5033981;28;20534;-62
2022/05/29 00:07:15;;;;;;;5.82;2.30;;;;;;;11.99;61.27;101743.75;5034109;28;20029;-62
2022/05/29 00:09:45;;;;;;;5.43;2.28;;;;;;;11.89;61.57;101741.78;5033824;28;20049;-62
2022/05/29 00:12:11;;;;;;;7.78;2.60;;;;;;;11.91;61.17;101735.66;5033946;28;20507;-62
2022/05/29 00:14:39;;;;;;;10.65;2.65;;;;;;;11.89;61.39;101740.03;5032951;28;20026;-62
2022/05/29 00:17:05;;;;;;;8.00;2.47;;;;;;;11.90;61.32;101735.63;5033914;28;20025;-62
2022/05/29 00:19:30;;;;;;;6.22;2.28;;;;;;;11.92;61.40;101734.81;5033645;28;20037;-62
2022/05/29 00:21:56;;;;;;;8.73;2.70;;;;;;;11.83;61.91;101734.63;5033657;28;20060;-63
2022/05/29 00:24:22;;;;;;;8.93;2.50;;;;;;;11.73;62.17;101727.31;5033765;28;20029;-62
2022/05/29 00:26:48;;;;;;;8.65;2.53;;;;;;;11.63;62.34;101725.34;5033843;28;20029;-62
2022/05/29 00:29:14;;;;;;;9.00;2.58;;;;;;;11.56;62.54;101728.72;5033755;28;20017;-62
2022/05/29 00:31:39;;;;;;;6.55;2.50;;;;;;;11.50;62.51;101730.38;5033886;28;20422;-62
2022/05/29 00:34:04;;;;;;;7.15;2.60;;;;;;;11.42;62.63;101720.50;5033529;28;20096;-62
2022/05/29 00:36:36;;;;;;;7.15;2.45;;;;;;;11.47;62.54;101721.47;5033608;28;20087;-62
2022/05/29 00:39:02;;;;;;;5.43;2.08;;;;;;;11.56;62.57;101726.06;5033446;28;20025;-62
2022/05/29 00:41:31;;;;;;;7.05;2.38;;;;;;;11.54;62.31;101724.28;5033505;28;20029;-62
2022/05/29 00:44:15;;;;;;;5.10;2.15;;;;;;;11.59;61.72;101719.09;5033438;28;20037;-62
2022/05/29 00:46:53;;;;;;;7.30;2.20;;;;;;;11.66;62.04;101714.81;5033334;28;20037;-62
2022/05/29 00:49:22;;;;;;;6.55;2.50;;;;;;;11.62;62.70;101711.22;5033372;28;20033;-62
2022/05/29 00:51:53;;;;;;;13.45;2.60;;;;;;;11.59;63.11;101704.97;5033333;28;20491;-62
2022/05/29 00:54:20;;;;;;;8.98;2.30;;;;;;;11.54;63.47;101710.16;5033319;28;20034;-62
2022/05/29 00:56:46;;;;;;;7.97;2.40;;;;;;;11.44;63.80;101697.63;5033417;28;20466;-62
2022/05/29 00:59:25;;;;;;;9.57;2.70;;;;;;;11.46;63.80;101701.19;5033488;28;20025;-62
2022/05/29 01:01:54;;;;;;;8.45;2.63;;;;;;;11.46;63.95;101710.00;5033216;28;20029;-62
2022/05/29 01:04:21;;;;;;;8.35;2.60;;;;;;;11.55;64.01;101704.00;5033396;28;20035;-62
2022/05/29 01:06:46;;;;;;;8.90;2.38;;;;;;;11.67;63.67;101703.38;5033296;28;20036;-62
2022/05/29 01:09:13;;;;;;;8.45;2.70;;;;;;;11.73;63.36;101696.47;5033167;28;20398;-62
2022/05/29 01:12:00;;;;;;;7.43;2.40;;;;;;;11.77;63.16;101685.03;5033340;28;20529;-62
2022/05/29 01:14:36;;;;;;;7.18;2.38;;;;;;;11.80;63.28;101697.44;5032963;28;20116;-62
2022/05/29 01:17:13;;;;;;;7.38;2.38;;;;;;;11.78;63.74;101688.59;5033107;28;20029;-62
2022/05/29 01:19:57;;;;;;;6.35;2.38;;;;;;;11.78;63.28;101683.31;5033233;28;20032;-62
2022/05/29 01:22:34;;;;;;;7.07;2.40;;;;;;;11.72;63.90;101684.06;5032838;28;20042;-62
2022/05/29 01:25:28;;;;;;;4.65;2.33;;;;;;;11.76;63.63;101677.06;5033243;28;20083;-62
2022/05/29 01:28:25;;;;;;;9.35;2.80;;;;;;;11.79;62.97;101683.31;5037295;28;20034;-62
2022/05/29 01:31:07;;;;;;;12.05;2.70;;;;;;;11.81;63.59;101683.34;5037607;28;20116;-61
2022/05/29 01:34:08;;;;;;;8.55;2.38;;;;;;;11.83;63.01;101676.38;5037105;28;20029;-61
2022/05/29 01:36:50;;;;;;;7.50;2.90;;;;;;;11.79;63.45;101679.78;5036954;28;20029;-61
2022/05/29 01:39:24;;;;;;;8.65;2.42;;;;;;;11.85;63.38;101671.09;5037212;28;20029;-61
2022/05/29 01:42:24;;;;;;;7.78;2.50;;;;;;;11.88;63.12;101677.34;5036979;28;20426;-62
2022/05/29 01:45:14;;;;;;;11.15;2.42;;;;;;;11.86;63.93;101675.50;4956457;28;20037;-62
2022/05/29 01:48:01;;;;;;;8.57;2.65;;;;;;;11.85;63.65;101671.97;4956556;29;20047;-62
2022/05/29 01:50:41;;;;;;;8.05;2.70;;;;;;;11.86;63.68;101663.19;4956291;29;20046;-62
2022/05/29 01:53:16;;;;;;;7.40;2.40;;;;;;;11.85;63.55;101663.13;4956400;29;20035;-62
2022/05/29 01:55:47;;;;;;;6.28;2.35;;;;;;;11.78;64.00;101665.66;4956278;29;20592;-62
2022/05/29 01:58:20;;;;;;;7.20;2.20;;;;;;;11.84;63.49;101656.06;4967787;28;20499;-62
2022/05/29 02:00:48;;;;;;;12.48;2.53;;;;;;;11.87;63.66;101659.69;4975542;28;20042;-62
2022/05/29 02:03:19;;;;;;;10.27;2.80;;;;;;;11.79;63.81;101654.19;4975427;28;20023;-61
2022/05/29 02:05:52;;;;;;;9.43;2.58;;;;;;;11.75;63.87;101652.34;4975469;28;20388;-62
2022/05/29 02:08:25;;;;;;;9.88;2.45;;;;;;;11.77;64.18;101657.66;4975540;28;20043;-62
2022/05/29 02:10:57;;;;;;;9.27;2.55;;;;;;;11.77;64.46;101652.38;4975388;28;20038;-62
2022/05/29 02:13:33;;;;;;;9.65;2.80;;;;;;;11.73;64.76;101650.53;4975256;28;20046;-62
2022/05/29 02:16:08;;;;;;;9.18;2.67;;;;;;;11.62;65.16;101649.44;4975392;28;20392;-62
2022/05/29 02:18:43;;;;;;;8.07;2.80;;;;;;;11.61;65.11;101645.91;4975174;28;20030;-62
2022/05/29 02:21:14;;;;;;;9.20;2.85;;;;;;;11.61;64.80;101651.19;4999077;28;20045;-62
2022/05/29 02:23:45;;;;;;;10.02;2.80;;;;;;;11.60;65.39;101649.41;5018121;28;20045;-62
2022/05/29 02:26:17;;;;;;;9.43;2.70;;;;;;;11.59;65.46;101642.31;5018009;28;20095;-62
2022/05/29 02:28:47;;;;;;;10.55;2.90;;;;;;;11.62;65.16;101645.03;5035716;28;20123;-62
2022/05/29 02:31:39;;;;;;;9.05;2.63;;;;;;;11.65;64.27;101629.22;5035906;28;20394;-62
2022/05/29 02:34:43;;;;;;;8.73;2.67;;;;;;;11.68;64.05;101638.97;5035846;28;20071;-62
2022/05/29 02:37:14;;;;;;;11.15;3.10;;;;;;;11.54;65.04;101634.28;5034849;28;20037;-62
2022/05/29 02:39:42;;;;;;;8.52;2.67;;;;;;;11.48;65.09;101636.84;5035780;28;20030;-62
2022/05/29 02:42:16;;;;;;;11.77;2.70;;;;;;;11.43;65.73;101638.47;5035761;28;20021;-62
2022/05/29 02:44:47;;;;;;;10.85;2.47;;;;;;;11.44;65.84;101628.81;5035589;28;20616;-62
2022/05/29 02:47:45;;;;;;;8.48;2.80;;;;;;;11.46;64.74;101621.78;5035566;28;20026;-62
2022/05/29 02:50:15;;;;;;;9.30;2.78;;;;;;;11.30;65.82;101631.16;5035504;28;20021;-62
2022/05/29 02:52:40;;;;;;;8.18;2.78;;;;;;;11.28;66.24;101628.50;5035567;28;20064;-62
2022/05/29 02:55:06;;;;;;;6.70;2.50;;;;;;;11.27;66.06;101623.19;5035473;28;20053;-61
2022/05/29 02:57:33;;;;;;;9.20;2.80;;;;;;;11.24;66.31;101616.06;5035283;28;20037;-62
2022/05/29 03:00:07;;;;;;;8.32;2.80;;;;;;;11.18;66.52;101618.59;5035449;28;20033;-62
2022/05/29 03:02:47;;;;;;;8.35;2.60;;;;;;;11.22;66.60;101619.53;5035524;28;20088;-62
2022/05/29 03:05:24;;;;;;;7.80;2.78;;;;;;;11.19;67.19;101620.38;5035124;28;20033;-62
2022/05/29 03:07:58;;;;;;;9.38;2.67;;;;;;;11.16;66.78;101615.00;5035270;28;20084;-63
2022/05/29 03:10:31;;;;;;;8.55;2.70;;;;;;;11.14;67.10;101611.44;5035264;28;20065;-62
2022/05/29 03:13:09;;;;;;;8.30;2.67;;;;;;;11.14;66.95;101607.91;5035205;28;20572;-62
2022/05/29 03:15:53;;;;;;;10.57;2.90;;;;;;;11.09;67.58;101613.13;5035130;28;20036;-62
2022/05/29 03:18:56;;;;;;;6.95;2.58;;;;;;;11.24;65.99;101613.41;5035083;28;20033;-62
2022/05/29 03:21:34;;;;;;;7.60;2.70;;;;;;;11.27;66.63;101609.94;4954888;29;20090;-62
2022/05/29 03:24:29;;;;;;;10.55;2.97;;;;;;;11.28;66.72;101617.00;4954714;28;20090;-62
2022/05/29 03:27:08;;;;;;;9.65;2.92;;;;;;;11.22;66.70;101616.88;4954632;29;20035;-62
2022/05/29 03:29:47;;;;;;;11.35;2.70;;;;;;;11.15;67.46;101607.94;4938858;29;20027;-62
2022/05/29 03:32:13;;;;;;;7.22;2.63;;;;;;;11.19;67.26;101604.50;4955118;29;20047;-61
2022/05/29 03:34:39;;;;;;;10.52;2.70;;;;;;;11.13;67.59;101599.06;4954718;29;20038;-61
2022/05/29 03:37:06;;;;;;;9.77;3.15;;;;;;;11.24;67.41;101608.13;4954591;29;20039;-62
2022/05/29 03:39:32;;;;;;;7.05;2.70;;;;;;;11.19;67.52;101599.22;4954367;29;20433;-62
2022/05/29 03:41:57;;;;;;;9.05;2.80;;;;;;;11.17;67.47;101600.03;4954141;29;20062;-62
2022/05/29 03:44:24;;;;;;;8.95;2.60;;;;;;;11.14;67.67;101606.16;4954011;29;20067;-62
2022/05/29 03:46:49;;;;;;;8.10;2.70;;;;;;;11.22;67.66;101601.00;4954072;29;20043;-62
2022/05/29 03:49:19;;;;;;;10.80;2.90;;;;;;;11.22;67.32;101594.00;4953422;28;20481;-62
2022/05/29 03:51:45;;;;;;;7.72;2.70;;;;;;;11.23;67.22;101593.13;4953618;29;20043;-62
2022/05/29 03:54:11;;;;;;;6.47;2.67;;;;;;;11.22;67.18;101590.41;4953562;29;20046;-62
2022/05/29 03:56:37;;;;;;;7.03;2.75;;;;;;;11.18;67.11;101586.84;4977851;28;20124;-62
2022/05/29 03:59:03;;;;;;;7.35;2.70;;;;;;;11.18;67.53;101591.25;5013885;28;20105;-62
2022/05/29 04:01:29;;;;;;;8.13;2.70;;;;;;;11.19;67.42;101593.03;5013792;28;20034;-61
2022/05/29 04:03:55;;;;;;;10.18;2.95;;;;;;;11.24;67.43;101594.00;5013848;28;20055;-62
2022/05/29 04:06:25;;;;;;;9.60;3.03;;;;;;;11.23;67.71;101593.13;5013780;28;20040;-62
2022/05/29 04:14:22;;;;;;;8.80;2.78;;;;;;;11.28;67.65;101596.75;5014077;28;20557;-62
2022/05/29 04:16:48;;;;;;;7.60;2.45;;;;;;;11.30;67.50;101583.53;5013549;28;20117;-62
2022/05/29 04:19:13;;;;;;;5.93;2.80;;;;;;;11.34;67.23;101584.50;5013457;28;20105;-62
2022/05/29 04:21:39;;;;;;;7.45;2.53;;;;;;;11.39;67.39;101590.75;5015397;28;20030;-62
2022/05/29 04:24:04;;;;;;;5.50;2.53;;;;;;;11.35;67.63;101580.97;5033183;28;20022;-62
2022/05/29 04:26:30;;;;;;;10.13;2.78;;;;;;;11.40;67.88;101580.22;5033205;28;20128;-62
2022/05/29 04:28:55;;;;;;;10.90;2.72;;;;;;;11.42;67.88;101578.47;5033091;28;20033;-62
2022/05/29 04:31:21;;;;;;;8.23;2.72;;;;;;;11.43;68.17;101580.25;5033396;28;20034;-62
2022/05/29 04:33:46;;;;;;;6.82;2.83;;;;;;;11.51;68.06;101580.41;5033236;28;20399;-62
2022/05/29 04:36:12;;;;;;;8.85;2.70;;;;;;;11.54;68.24;101586.66;5032975;28;20474;-62
2022/05/29 04:38:37;;;;;;;11.45;2.80;;;;;;;11.45;69.02;101599.72;5032984;28;20101;-62
2022/05/29 04:41:08;;;;;;;10.13;2.78;;;;;;;11.32;70.29;101599.47;5032936;28;20030;-63
2022/05/29 04:43:33;;;;;;;9.85;2.85;;;;;;;11.21;71.09;101601.88;5032751;28;20108;-64
2022/05/29 04:45:59;;;;;;;11.50;3.40;;;;;;;11.13;71.93;101600.81;5032737;28;20113;-63
2022/05/29 04:48:24;;;;;;;13.38;3.15;;;;;;;11.06;73.00;101597.16;5033123;28;20030;-64
2022/05/29 04:51:02;;;;;;;7.30;2.67;;;;;;;11.04;73.28;101593.59;5032802;28;20425;-64
2022/05/29 04:53:30;;;;;;;13.25;3.15;;;;;;;10.99;73.59;101598.78;5032723;28;20064;-65
2022/05/29 04:55:57;;;;;;;7.95;2.90;;;;;;;10.98;73.61;101597.00;5032782;28;20475;-64
2022/05/29 04:58:25;;;;;;;10.75;2.80;;;;;;;11.00;73.79;101591.75;5032770;28;20113;-64
2022/05/29 05:00:58;;;;;;;9.63;2.92;;;;;;;11.06;73.30;101583.06;5032056;28;20415;-65
2022/05/29 05:03:24;;;;;;;7.57;3.00;;;;;;;11.06;73.29;101577.78;5032610;28;20068;-64
2022/05/29 05:05:49;;;;;;;8.48;2.83;;;;;;;11.12;73.50;101580.53;5032759;28;20079;-63
2022/05/29 05:08:15;;;;;;;8.30;3.33;;;;;;;11.28;72.70;101577.34;5032657;28;20028;-64
2022/05/29 05:10:41;;;;;;;9.95;2.90;;;;;;;11.28;72.41;101575.56;5032528;28;20477;-64
2022/05/29 05:13:08;;;;;;;8.25;2.75;;;;;;;11.34;72.39;101577.44;5032728;28;20056;-63
2022/05/29 05:15:34;;;;;;;8.98;2.83;;;;;;;11.35;72.05;101578.31;5032330;28;20086;-63
2022/05/29 05:18:00;;;;;;;7.57;2.90;;;;;;;11.40;72.53;101576.69;5032426;28;20471;-64
2022/05/29 05:20:25;;;;;;;11.35;3.00;;;;;;;11.43;72.34;101576.72;5032237;28;20032;-64
2022/05/29 05:22:52;;;;;;;7.65;3.20;;;;;;;11.44;72.99;101574.13;5032380;28;20490;-64
2022/05/29 05:25:18;;;;;;;12.82;3.08;;;;;;;11.43;71.99;101574.06;5032290;28;20475;-64
2022/05/29 05:27:43;;;;;;;8.00;3.05;;;;;;;11.42;72.96;101573.19;5032237;28;20071;-64
2022/05/29 05:30:09;;;;;;;10.38;2.80;;;;;;;11.50;73.03;101570.69;5032408;28;20061;-64
2022/05/29 05:32:35;;;;;;;13.75;3.10;;;;;;;11.56;72.28;101572.53;5032286;28;20482;-64
2022/05/29 05:35:03;;;;;;;10.02;3.00;;;;;;;11.60;72.86;101563.81;5032032;28;20061;-63
2022/05/29 05:37:29;;;;;;;8.68;2.88;;;;;;;11.58;72.28;101560.25;5032111;28;20026;-64
2022/05/29 05:39:55;;;;;;;8.60;3.13;;;;;;;11.65;72.89;101572.72;5032406;28;20029;-64
2022/05/29 05:42:20;;;;;;;11.75;3.35;;;;;;;11.69;72.61;101574.56;5032952;28;20064;-64
2022/05/29 05:44:46;;;;;;;10.95;3.30;;;;;;;11.69;72.78;101561.31;5034400;28;20100;-63
2022/05/29 05:47:12;;;;;;;8.63;3.03;;;;;;;11.67;73.21;101558.66;5033443;28;20040;-64
2022/05/29 05:49:37;;;;;;;7.18;3.10;;;;;;;11.69;72.61;101569.25;5031916;28;20395;-64
2022/05/29 05:52:03;;;;;;;8.82;2.90;;;;;;;11.69;73.34;101559.59;5032239;28;20029;-62
2022/05/29 05:54:34;;;;;;;9.20;3.30;;;;;;;11.71;73.66;101563.13;5032203;28;20422;-63
2022/05/29 05:56:59;;;;;;;11.07;3.17;;;;;;;11.68;74.06;101562.19;5032535;28;20037;-63
2022/05/29 05:59:25;;;;;;;7.85;3.40;;;;;;;11.64;73.66;101563.88;5032207;28;20117;-64
2022/05/29 06:01:50;;;;;;;9.43;2.92;;;;;;;11.71;73.92;101563.13;5032140;28;20394;-63
2022/05/29 06:04:16;;;;;;;7.63;2.88;;;;;;;11.71;73.37;101567.53;5031929;28;20021;-63
2022/05/29 06:06:41;;;;;;;7.88;3.47;;;;;;;11.73;73.73;101569.38;5031917;28;20112;-64
2022/05/29 06:09:06;;;;;;;9.23;3.40;;;;;;;11.78;73.69;101569.44;5032212;28;20032;-63
2022/05/29 06:11:33;;;;;;;6.88;2.90;;;;;;;11.82;74.79;101565.97;5033338;28;20064;-63
2022/05/29 06:13:59;;;;;;;9.57;3.25;;;;;;;11.87;73.57;101561.69;5035925;28;20048;-63
2022/05/29 06:16:24;;;;;;;7.93;3.22;;;;;;;11.93;73.75;101564.44;5035710;28;20479;-63
2022/05/29 06:18:49;;;;;;;7.75;3.40;;;;;;;11.91;74.43;101570.59;5035798;28;20026;-64
2022/05/29 06:21:15;;;;;;;11.05;3.42;;;;;;;12.04;74.44;101567.28;5035386;28;20102;-63
2022/05/29 06:23:40;;;;;;;7.57;3.05;;;;;;;12.03;74.25;101563.72;5035666;28;20083;-63
2022/05/29 06:26:08;;;;;;;8.35;3.13;;;;;;;11.98;73.79;101557.44;5035655;28;20108;-63
2022/05/29 06:28:34;;;;;;;6.25;2.90;;;;;;;11.98;74.25;101554.78;5035468;28;20030;-63
2022/05/29 06:31:06;;;;;;;8.35;3.50;;;;;;;12.01;73.71;101553.97;5035501;28;20018;-63
2022/05/29 06:33:31;;;;;;;8.95;3.30;;;;;;;12.18;74.51;101559.53;5035475;28;20117;-63
2022/05/29 06:36:18;;;;;;;11.13;3.45;;;;;;;12.24;73.96;101560.50;5035266;28;20108;-63
2022/05/29 06:38:45;;;;;;;10.18;3.13;;;;;;;12.29;74.29;101557.94;5035246;28;20088;-63
2022/05/29 06:41:12;;;;;;;7.55;3.03;;;;;;;12.42;75.17;101567.88;5035315;28;20426;-64
2022/05/29 06:43:38;;;;;;;7.38;3.00;;;;;;;12.50;75.37;101560.00;5035019;28;20045;-63
2022/05/29 06:46:06;;;;;;;7.13;2.90;;;;;;;12.55;73.94;101571.59;5035339;28;20022;-63
2022/05/29 06:48:33;;;;;;;7.18;3.10;;;;;;;12.60;74.70;101561.03;5034686;28;20080;-63
2022/05/29 06:51:06;;;;;;;6.53;3.25;;;;;;;12.66;73.57;101569.06;5017412;28;20448;-63
2022/05/29 06:53:32;;;;;;;6.72;3.25;;;;;;;12.72;74.31;101572.72;5034871;28;20520;-63
2022/05/29 06:55:57;;;;;;;11.65;3.50;;;;;;;12.74;73.05;101570.94;5035047;28;20104;-63
2022/05/29 06:58:23;;;;;;;8.32;3.08;;;;;;;12.81;74.03;101568.41;5034633;28;20053;-63
2022/05/29 07:09:01;;;;;;;7.20;3.30;;;;;;;13.03;73.90;101570.44;5034671;28;20072;-63
2022/05/29 07:11:30;;;;;;;9.65;3.20;;;;;;;13.11;72.75;101565.25;5034592;28;20025;-64
2022/05/29 07:13:57;;;;;;;8.23;3.08;;;;;;;13.17;72.08;101562.63;5016666;28;20103;-63
2022/05/29 07:16:22;;;;;;;9.75;3.20;;;;;;;13.17;72.33;101563.53;5034762;28;20344;-63
2022/05/29 07:18:50;;;;;;;8.63;2.80;;;;;;;13.09;71.88;101559.00;5034509;28;20119;-62
2022/05/29 07:21:17;;;;;;;8.55;3.20;;;;;;;13.08;71.53;101557.22;5034347;28;20029;-63
2022/05/29 07:23:43;;;;;;;6.55;3.00;;;;;;;13.12;72.71;101567.00;5033664;28;20092;-62
2022/05/29 07:26:09;;;;;;;8.80;3.00;;;;;;;13.13;71.84;101559.06;5034231;28;20379;-64
2022/05/29 07:28:34;;;;;;;9.25;3.00;;;;;;;13.21;72.02;101554.72;5034326;28;20030;-62
2022/05/29 07:31:00;;;;;;;9.60;3.17;;;;;;;13.34;73.15;101546.94;5034141;28;20051;-62
2022/05/29 07:33:25;;;;;;;8.88;3.30;;;;;;;13.44;72.90;101556.78;5034271;28;20068;-62
2022/05/29 07:35:52;;;;;;;6.80;3.00;;;;;;;13.47;72.04;101547.06;5034080;28;20088;-62
2022/05/29 07:38:18;;;;;;;10.02;3.33;;;;;;;13.44;70.94;101554.13;5034206;28;20029;-63
2022/05/29 07:40:43;;;;;;;10.43;3.03;;;;;;;13.49;71.61;101553.31;5034053;28;20144;-63
2022/05/29 07:43:22;;;;;;;8.05;3.20;;;;;;;13.51;70.66;101540.91;5033980;28;20032;-63
2022/05/29 07:45:53;;;;;;;8.25;2.90;;;;;;;13.55;70.42;101538.31;5033916;28;20108;-63
2022/05/29 07:48:21;;;;;;;8.30;3.10;;;;;;;13.57;69.94;101542.75;5033859;28;20046;-63
2022/05/29 07:50:47;;;;;;;9.88;3.03;;;;;;;13.55;70.61;101541.84;5034017;28;20056;-63
2022/05/29 07:53:13;;;;;;;8.27;3.00;;;;;;;13.51;70.06;101540.91;5033657;28;20475;-63
2022/05/29 07:55:39;;;;;;;10.38;3.05;;;;;;;13.58;70.34;101544.53;5033806;28;20363;-63
2022/05/29 07:58:06;;;;;;;13.02;3.10;;;;;;;13.59;69.13;101541.00;5033511;28;20466;-63
2022/05/29 08:00:32;;;;;;;8.35;2.80;;;;;;;13.58;69.11;101539.22;5033974;28;20026;-62
2022/05/29 08:02:58;;;;;;;10.85;3.30;;;;;;;13.58;68.73;101541.00;5033444;28;20532;-63
2022/05/29 08:05:23;;;;;;;8.32;2.90;;;;;;;13.67;68.91;101534.00;5033361;28;20029;-63
2022/05/29 08:07:49;;;;;;;9.00;2.78;;;;;;;13.80;68.97;101529.69;5033785;28;20021;-63
2022/05/29 08:10:19;;;;;;;9.13;3.13;;;;;;;13.95;69.23;101535.09;5033274;28;20029;-64
2022/05/29 08:12:44;;;;;;;9.43;3.00;;;;;;;14.19;68.28;101530.88;5033456;28;20033;-63
2022/05/29 08:15:10;;;;;;;9.02;3.13;;;;;;;14.32;67.47;101529.19;5033382;28;20034;-62
2022/05/29 08:17:37;;;;;;;8.32;2.70;;;;;;;14.36;66.27;101536.28;5033617;28;20021;-63
2022/05/29 08:20:03;;;;;;;8.90;3.03;;;;;;;14.39;65.44;101539.88;5033511;28;20033;-63
2022/05/29 08:22:28;;;;;;;7.63;2.58;;;;;;;14.31;65.52;101530.06;5033285;28;20049;-63
2022/05/29 08:30:43;;;;;;;8.32;2.90;;;;;;;14.57;64.92;101520.50;5033348;28;20045;-63
2022/05/29 08:33:11;;;;;;;8.85;3.03;;;;;;;14.53;64.84;101524.03;5033573;28;20026;-62
2022/05/29 08:35:38;;;;;;;13.35;2.78;;;;;;;14.55;65.35;101521.34;5032172;28;20064;-63
2022/05/29 08:38:05;;;;;;;11.23;2.80;;;;;;;14.47;64.38;101532.84;5033132;28;20471;-62
2022/05/29 08:40:31;;;;;;;11.02;2.92;;;;;;;14.42;64.40;101515.94;5032962;28;20029;-62
2022/05/29 08:42:57;;;;;;;12.48;2.95;;;;;;;14.35;64.09;101521.22;5032888;28;20029;-62
2022/05/29 08:45:23;;;;;;;7.90;2.60;;;;;;;14.26;65.58;101522.03;5033040;28;20032;-63
2022/05/29 08:47:50;;;;;;;8.20;2.78;;;;;;;14.23;64.87;101524.69;5032933;28;20120;-62
2022/05/29 08:50:21;;;;;;;10.00;2.90;;;;;;;14.23;66.00;101520.25;5032957;28;20493;-63
2022/05/29 08:53:01;;;;;;;7.00;2.97;;;;;;;14.29;64.60;101522.06;5033051;28;20032;-63
2022/05/29 08:55:47;;;;;;;11.88;2.83;;;;;;;14.41;63.58;101519.47;5032858;28;20095;-63
2022/05/29 08:58:27;;;;;;;8.80;2.60;;;;;;;14.55;63.65;101514.25;5033106;28;20056;-62
2022/05/29 09:01:04;;;;;;;8.45;2.60;;;;;;;14.73;63.96;101514.38;5033893;28;20041;-63
2022/05/29 09:03:36;;;;;;;8.98;2.80;;;;;;;14.84;63.33;101506.41;5033185;28;20072;-62
2022/05/29 09:06:14;;;;;;;10.70;2.80;;;;;;;15.03;61.20;101513.59;5032797;28;20037;-66
2022/05/29 09:08:52;;;;;;;7.03;2.30;;;;;;;15.32;60.97;101504.78;5032735;28;20032;-62
2022/05/29 09:11:47;;;;;;;10.82;2.92;;;;;;;15.83;62.62;101503.06;5032628;28;20021;-63
2022/05/29 09:14:28;;;;;;;6.60;2.50;;;;;;;16.23;58.88;101493.25;5032714;28;20424;-62
2022/05/29 09:17:06;;;;;;;8.63;2.50;;;;;;;16.55;58.00;101491.38;5032704;28;20040;-64
2022/05/29 09:19:34;;;;;;;10.10;2.40;;;;;;;16.57;52.64;101487.81;5032333;28;20471;-67
2022/05/29 09:22:04;;;;;;;8.23;2.40;;;;;;;16.50;55.03;101494.06;5032423;28;20394;-64
2022/05/29 09:24:30;;;;;;;7.50;2.33;;;;;;;16.42;55.76;101493.22;5032444;28;20026;-68
2022/05/29 09:26:55;;;;;;;6.60;2.50;;;;;;;16.22;56.56;101488.81;5032453;28;20033;-69
2022/05/29 09:29:21;;;;;;;5.75;2.30;;;;;;;16.05;59.14;101481.72;5032361;28;20103;-65
2022/05/29 09:31:47;;;;;;;7.45;2.70;;;;;;;15.79;59.32;101479.97;5032295;28;20033;-65
2022/05/29 09:34:12;;;;;;;6.18;2.60;;;;;;;15.68;60.25;101474.66;5032329;28;20018;-65
2022/05/29 09:36:44;;;;;;;6.70;2.53;;;;;;;15.62;60.73;101485.28;5032215;28;20412;-65
2022/05/29 09:39:17;;;;;;;9.40;2.60;;;;;;;15.63;61.60;101472.84;5032298;28;20029;-65
2022/05/29 09:42:23;;;;;;;8.30;2.47;;;;;;;15.88;63.85;101487.06;5032187;28;20029;-65
2022/05/29 09:45:22;;;;;;;8.15;2.72;;;;;;;16.52;64.55;101476.25;5032175;28;20032;-67
2022/05/29 09:50:38;;;;;;;9.18;2.60;;;;;;;17.46;60.60;101468.66;5036272;28;20399;-64
2022/05/29 09:53:10;;;;;;;9.53;2.70;;;;;;;17.64;61.49;101454.25;5035972;28;20025;-64
2022/05/29 09:55:37;;;;;;;10.52;2.75;;;;;;;17.72;56.49;101453.28;5035969;28;20030;-67
2022/05/29 09:58:20;;;;;;;11.52;2.60;;;;;;;17.81;57.60;101460.38;5036063;28;20022;-66
2022/05/29 10:00:55;;;;;;;8.10;3.08;;;;;;;17.57;53.05;101448.09;5035981;28;20059;-66
2022/05/29 10:03:42;;;;;;;7.47;2.70;;;;;;;17.31;54.55;101453.63;5017861;28;20391;-66
2022/05/29 10:06:16;;;;;;;7.07;2.63;;;;;;;17.03;53.94;101459.16;5036003;28;20033;-66
2022/05/29 10:08:44;;;;;;;8.75;3.10;;;;;;;16.98;57.61;101452.06;5035916;28;20072;-66
2022/05/29 10:11:18;;;;;;;8.32;3.20;;;;;;;16.87;56.92;101459.25;5036071;28;20371;-65
2022/05/29 10:13:44;;;;;;;8.57;2.75;;;;;;;16.91;55.81;101448.53;5035706;28;20030;-65
2022/05/29 10:16:11;;;;;;;7.32;2.60;;;;;;;16.83;53.53;101450.38;5035798;28;20041;-62
2022/05/29 10:18:41;;;;;;;8.23;2.40;;;;;;;16.81;54.48;101461.97;5035232;28;20083;-64
2022/05/29 10:21:22;;;;;;;5.82;1.67;;;;;;;16.43;53.57;101450.50;5035795;28;20026;-62
2022/05/29 10:23:54;;;;;;;3.22;1.40;;;;;;;16.00;54.39;101449.75;5035229;28;20099;-64
2022/05/29 10:26:29;;;;;;;2.88;1.38;;;;;;;15.83;56.43;101451.56;5035413;28;20033;-65
2022/05/29 10:28:55;;;;;;;2.20;1.38;;;;;;;15.69;54.65;101455.13;5035152;28;20540;-63
2022/05/29 10:31:35;;;;;;;1.85;1.00;;;;;;;15.50;54.71;101446.22;5035412;28;20022;-63
2022/05/29 10:34:10;;;;;;;2.10;1.10;;;;;;;15.56;55.69;101448.00;5035105;28;20036;-62
2022/05/29 10:36:37;;;;;;;2.92;1.30;;;;;;;15.66;55.11;101452.44;5035049;28;20084;-63
2022/05/29 10:39:23;;;;;;;1.88;0.98;;;;;;;15.71;55.47;101447.13;5035253;28;20127;-62
2022/05/29 10:41:50;;;;;;;2.65;1.20;;;;;;;15.75;53.79;101449.78;5035301;28;20076;-63
2022/05/29 10:44:39;;;;;;;4.68;1.38;;;;;;;15.86;55.27;101460.44;5035161;28;20033;-63
2022/05/29 10:47:34;;;;;;;3.15;1.25;;;;;;;15.90;55.22;101462.22;5035021;28;20025;-62
2022/05/29 10:50:14;;;;;;;4.65;1.60;;;;;;;15.99;55.23;101458.66;5034837;28;20084;-64
2022/05/29 10:52:52;;;;;;;6.03;1.77;;;;;;;16.01;55.02;101457.72;5035010;28;20049;-63
2022/05/29 10:55:46;;;;;;;3.78;1.60;;;;;;;16.01;55.67;101467.50;5035017;28;20034;-64
2022/05/29 10:58:31;;;;;;;2.83;1.50;;;;;;;15.99;56.25;101471.97;5033922;28;20104;-65
2022/05/29 11:04:36;;;;;;;2.80;1.40;;;;;;;16.65;58.25;101469.09;5035078;28;20195;-64
2022/05/29 11:07:04;;;;;;;2.75;1.38;;;;;;;16.94;55.74;101459.19;5034566;28;20372;-65
2022/05/29 11:10:00;;;;;;;5.88;1.90;;;;;;;17.32;55.10;101454.53;5034599;28;20447;-64
2022/05/29 11:12:56;;;;;;;2.78;1.40;;;;;;;17.64;56.37;101459.59;5034521;28;20043;-62
2022/05/29 11:15:45;;;;;;;2.17;1.50;;;;;;;17.82;55.02;101461.28;5033986;28;20099;-60
2022/05/29 11:18:22;;;;;;;2.33;1.50;;;;;;;17.85;54.52;101451.41;5035148;28;20060;-63
2022/05/29 11:20:56;;;;;;;8.73;1.95;;;;;;;17.82;55.62;101453.25;5034595;28;20091;-62
2022/05/29 11:23:57;;;;;;;4.68;1.60;;;;;;;17.72;56.14;101450.59;5034110;28;20080;-63
2022/05/29 11:26:50;;;;;;;2.88;1.70;;;;;;;17.59;58.28;101456.06;5034447;28;20036;-63
2022/05/29 11:29:40;;;;;;;4.55;1.65;;;;;;;17.32;57.97;101450.06;5034235;28;20037;-62
2022/05/29 11:32:22;;;;;;;5.68;1.52;;;;;;;17.06;60.76;101452.03;5034179;28;20046;-63
2022/05/29 11:35:39;;;;;;;3.08;1.60;;;;;;;16.93;58.83;101452.09;5034023;28;20025;-62
2022/05/29 11:38:10;;;;;;;4.30;1.48;;;;;;;16.98;58.72;101449.41;5012038;28;20496;-63
2022/05/29 11:40:42;;;;;;;2.33;1.45;;;;;;;17.01;61.26;101452.94;5012070;28;20056;-62
2022/05/29 11:43:35;;;;;;;3.88;1.70;;;;;;;16.95;58.88;101444.06;5012479;28;20038;-62
2022/05/29 11:52:09;;;;;;;5.53;1.88;;;;;;;16.90;60.24;101445.88;5012301;28;20084;-62
2022/05/29 11:54:41;;;;;;;4.25;1.80;;;;;;;16.69;59.58;101453.06;5012010;28;20038;-63
2022/05/29 11:57:37;;;;;;;3.50;1.50;;;;;;;16.25;59.56;101455.91;5011727;28;20522;-64
2022/05/29 12:00:42;;;;;;;5.28;1.60;;;;;;;15.78;61.62;101457.78;4990930;28;20527;-65
2022/05/29 12:03:20;;;;;;;5.10;1.77;;;;;;;15.43;63.44;101462.19;4992122;28;20053;-64
2022/05/29 12:05:53;;;;;;;5.75;1.63;;;;;;;15.17;64.60;101452.41;4991922;28;20042;-62
2022/05/29 12:08:21;;;;;;;3.22;1.23;;;;;;;15.09;64.03;101446.16;4988214;28;20043;-63
2022/05/29 12:11:27;;;;;;;3.58;1.30;;;;;;;15.02;64.13;101447.91;4972515;28;20038;-63
2022/05/29 12:14:11;;;;;;;4.20;1.83;;;;;;;14.88;64.70;101446.13;4973199;28;20042;-64
2022/05/29 12:16:41;;;;;;;3.65;1.90;;;;;;;14.89;65.58;101451.44;4972796;28;20166;-63
2022/05/29 12:19:20;;;;;;;3.80;1.83;;;;;;;14.90;65.98;101431.03;4973942;28;20039;-64
2022/05/29 12:21:51;;;;;;;2.78;1.60;;;;;;;15.04;64.10;101431.97;4972827;28;20058;-64